createdAt,value
2019-02-02T00:00:43.205Z,2.20
2019-02-02T00:03:12.886Z,2.20
2019-02-02T00:05:42.200Z,2.20
2019-02-02T00:08:11.545Z,2.20
2019-02-02T00:10:41.838Z,2.20
2019-02-02T00:13:11.481Z,2.20
2019-02-02T00:15:40.782Z,2.30
2019-02-02T00:18:10.646Z,2.20
2019-02-02T00:20:40.928Z,2.20
2019-02-02T00:23:10.326Z,2.20
2019-02-02T00:25:39.635Z,2.20
2019-02-02T00:28:08.970Z,2.30
2019-02-02T00:30:38.278Z,2.30
2019-02-02T00:33:07.621Z,2.30
2019-02-02T00:35:36.937Z,2.20
2019-02-02T00:38:06.580Z,2.30
2019-02-02T00:40:35.878Z,2.20
2019-02-02T00:43:05.463Z,2.20
2019-02-02T00:45:34.773Z,2.30
2019-02-02T00:48:04.115Z,2.30
2019-02-02T00:50:33.421Z,2.30
2019-02-02T00:53:02.845Z,2.30
2019-02-02T00:55:32.142Z,2.40
2019-02-02T00:58:01.482Z,2.40
2019-02-02T01:00:30.789Z,2.40
2019-02-02T01:03:00.125Z,2.30
2019-02-02T01:05:29.433Z,2.30
2019-02-02T01:07:58.793Z,2.30
2019-02-02T01:10:39.226Z,2.40
2019-02-02T01:13:09.582Z,2.30
2019-02-02T01:15:39.096Z,2.30
2019-02-02T01:18:08.477Z,2.30
2019-02-02T01:20:37.789Z,2.30
2019-02-02T01:23:07.132Z,2.40
2019-02-02T01:25:36.442Z,2.40
2019-02-02T01:28:05.849Z,2.40
2019-02-02T01:30:35.186Z,2.40
2019-02-02T01:33:04.525Z,2.40
2019-02-02T01:35:33.842Z,2.40
2019-02-02T01:38:03.188Z,2.40
2019-02-02T01:40:32.488Z,2.40
2019-02-02T01:43:01.842Z,2.40
2019-02-02T01:45:31.147Z,2.40
2019-02-02T01:48:00.494Z,2.40
2019-02-02T01:50:29.865Z,2.40
2019-02-02T01:52:59.212Z,2.40
2019-02-02T01:55:28.522Z,2.40
2019-02-02T01:57:57.864Z,2.30
2019-02-02T02:00:34.385Z,2.30
2019-02-02T02:03:03.808Z,2.30
2019-02-02T02:05:33.120Z,2.30
2019-02-02T02:08:02.468Z,2.30
2019-02-02T02:10:31.838Z,2.30
2019-02-02T02:13:01.176Z,2.30
2019-02-02T02:15:30.486Z,2.30
2019-02-02T02:17:59.857Z,2.30
2019-02-02T02:20:29.180Z,2.30
2019-02-02T02:22:58.538Z,2.30
2019-02-02T02:25:27.846Z,2.30
2019-02-02T02:27:57.189Z,2.30
2019-02-02T02:30:26.496Z,2.30
2019-02-02T02:32:55.909Z,2.30
2019-02-02T02:35:25.221Z,2.30
2019-02-02T02:37:54.588Z,2.30
2019-02-02T02:40:24.336Z,2.30
2019-02-02T02:42:54.213Z,2.30
2019-02-02T02:45:23.556Z,2.30
2019-02-02T02:47:52.856Z,2.20
2019-02-02T02:50:22.381Z,2.30
2019-02-02T02:52:51.690Z,2.30
2019-02-02T02:55:21.044Z,2.30
2019-02-02T02:57:50.346Z,2.30
2019-02-02T03:00:27.613Z,2.30
2019-02-02T03:02:58.989Z,2.30
2019-02-02T03:05:28.412Z,2.30
2019-02-02T03:07:57.712Z,2.30
2019-02-02T03:10:27.062Z,2.20
2019-02-02T03:12:56.379Z,2.30
2019-02-02T03:15:25.721Z,2.30
2019-02-02T03:17:55.043Z,2.20
2019-02-02T03:20:24.386Z,2.20
2019-02-02T03:22:53.744Z,2.20
2019-02-02T03:25:24.880Z,2.20
2019-02-02T03:27:54.193Z,2.30
2019-02-02T03:30:23.534Z,2.20
2019-02-02T03:32:52.857Z,2.20
2019-02-02T03:35:23.519Z,2.20
2019-02-02T03:37:52.902Z,2.30
2019-02-02T03:40:23.392Z,2.30
2019-02-02T03:42:52.716Z,2.20
2019-02-02T03:45:23.900Z,2.20
2019-02-02T03:47:53.934Z,2.20
2019-02-02T03:50:23.289Z,2.30
2019-02-02T03:52:52.595Z,2.30
2019-02-02T03:55:21.944Z,2.30
2019-02-02T03:57:51.242Z,2.30
2019-02-02T04:00:21.929Z,2.30
2019-02-02T04:02:51.238Z,2.30
2019-02-02T04:05:26.191Z,2.30
2019-02-02T04:07:55.498Z,2.30
2019-02-02T04:10:24.848Z,2.30
2019-02-02T04:12:54.161Z,2.30
2019-02-02T04:15:23.520Z,2.40
2019-02-02T04:17:52.808Z,2.40
2019-02-02T04:20:23.204Z,2.40
2019-02-02T04:22:52.527Z,2.40
2019-02-02T04:25:22.405Z,2.40
2019-02-02T04:27:51.708Z,2.40
2019-02-02T04:30:26.089Z,2.40
2019-02-02T04:32:55.403Z,2.40
2019-02-02T04:35:24.748Z,2.40
2019-02-02T04:37:54.045Z,2.40
2019-02-02T04:40:23.392Z,2.40
2019-02-02T04:42:52.706Z,2.40
2019-02-02T04:45:22.056Z,2.40
2019-02-02T04:47:51.362Z,2.40
2019-02-02T04:50:21.336Z,2.40
2019-02-02T04:52:50.646Z,2.50
2019-02-02T04:55:20.158Z,2.50
2019-02-02T04:57:49.462Z,2.50
2019-02-02T05:00:23.468Z,2.50
2019-02-02T05:02:52.783Z,2.50
2019-02-02T05:05:23.178Z,2.50
2019-02-02T05:07:52.487Z,2.50
2019-02-02T05:10:23.374Z,2.50
2019-02-02T05:12:52.741Z,2.50
2019-02-02T05:15:22.093Z,2.60
2019-02-02T05:17:51.401Z,2.60
2019-02-02T05:20:21.121Z,2.60
2019-02-02T05:22:50.501Z,2.60
2019-02-02T05:25:19.849Z,2.60
2019-02-02T05:27:49.154Z,2.50
2019-02-02T05:30:23.885Z,2.50
2019-02-02T05:32:53.198Z,2.50
2019-02-02T05:35:22.532Z,2.40
2019-02-02T05:37:51.849Z,2.50
2019-02-02T05:40:22.032Z,2.40
2019-02-02T05:42:51.347Z,2.40
2019-02-02T05:45:22.911Z,2.30
2019-02-02T05:47:53.186Z,2.40
2019-02-02T05:50:23.483Z,2.30
2019-02-02T05:52:52.964Z,2.30
2019-02-02T05:55:23.167Z,2.30
2019-02-02T05:57:52.470Z,2.40
2019-02-02T06:00:39.833Z,2.40
2019-02-02T06:03:09.140Z,2.30
2019-02-02T06:05:38.501Z,2.30
2019-02-02T06:08:07.808Z,2.20
2019-02-02T06:10:37.175Z,2.20
2019-02-02T06:13:06.526Z,2.10
2019-02-02T06:15:35.854Z,2.00
2019-02-02T06:18:05.206Z,2.00
2019-02-02T06:20:34.528Z,1.90
2019-02-02T06:23:03.883Z,1.90
2019-02-02T06:25:33.190Z,1.90
2019-02-02T06:28:02.550Z,1.90
2019-02-02T06:30:31.864Z,1.90
2019-02-02T06:33:01.213Z,1.90
2019-02-02T06:35:30.541Z,1.90
2019-02-02T06:37:59.893Z,1.80
2019-02-02T06:40:29.205Z,1.80
2019-02-02T06:42:58.560Z,1.80
2019-02-02T06:45:30.013Z,1.80
2019-02-02T06:47:59.369Z,1.80
2019-02-02T06:50:28.677Z,1.80
2019-02-02T06:52:58.564Z,1.80
2019-02-02T06:55:27.872Z,1.80
2019-02-02T06:57:57.210Z,1.80
2019-02-02T07:00:27.863Z,1.90
2019-02-02T07:02:57.208Z,2.00
2019-02-02T07:05:26.523Z,2.00
2019-02-02T07:07:55.872Z,2.10
2019-02-02T07:10:27.135Z,2.20
2019-02-02T07:12:56.552Z,2.30
2019-02-02T07:15:30.262Z,2.30
2019-02-02T07:17:59.598Z,2.40
2019-02-02T07:20:28.908Z,2.40
2019-02-02T07:22:58.265Z,2.40
2019-02-02T07:25:27.574Z,2.40
2019-02-02T07:27:57.900Z,2.50
2019-02-02T07:30:29.089Z,2.50
2019-02-02T07:32:58.179Z,2.60
2019-02-02T07:35:27.484Z,2.70
2019-02-02T07:37:56.829Z,2.80
2019-02-02T07:40:26.209Z,2.80
2019-02-02T07:42:55.584Z,2.80
2019-02-02T07:45:29.629Z,2.80
2019-02-02T07:47:58.984Z,2.80
2019-02-02T07:50:28.286Z,2.80
2019-02-02T07:52:57.637Z,2.80
2019-02-02T07:55:26.944Z,2.80
2019-02-02T07:57:56.353Z,2.90
2019-02-02T08:00:40.685Z,2.90
2019-02-02T08:03:06.581Z,3.00
2019-02-02T08:05:35.885Z,3.10
2019-02-02T08:08:05.603Z,3.20
2019-02-02T08:10:34.905Z,3.20
2019-02-02T08:13:04.541Z,3.20
2019-02-02T08:15:34.089Z,3.30
2019-02-02T08:18:03.436Z,3.40
2019-02-02T08:20:32.734Z,3.40
2019-02-02T08:23:02.077Z,3.40
2019-02-02T08:25:31.380Z,3.40
2019-02-02T08:28:00.725Z,3.50
2019-02-02T08:30:35.316Z,3.50
2019-02-02T08:33:03.409Z,3.50
2019-02-02T08:35:32.713Z,3.50
2019-02-02T08:38:02.061Z,3.50
2019-02-02T08:40:31.365Z,3.50
2019-02-02T08:43:00.725Z,3.50
2019-02-02T08:45:30.030Z,4.10
2019-02-02T08:47:59.452Z,3.50
2019-02-02T08:50:34.352Z,3.50
2019-02-02T08:53:03.692Z,3.50
2019-02-02T08:55:33.287Z,3.50
2019-02-02T08:58:02.757Z,3.50
2019-02-02T09:00:32.062Z,3.60
2019-02-02T09:03:01.475Z,3.60
2019-02-02T09:05:30.857Z,3.60
2019-02-02T09:08:00.152Z,3.60
2019-02-02T09:10:29.773Z,3.60
2019-02-02T09:12:59.069Z,3.70
2019-02-02T09:15:28.417Z,3.70
2019-02-02T09:17:57.761Z,3.80
2019-02-02T09:20:27.109Z,3.80
2019-02-02T09:23:06.068Z,3.90
2019-02-02T09:25:28.362Z,4.00
2019-02-02T09:27:57.680Z,4.00
2019-02-02T09:30:29.864Z,4.00
2019-02-02T09:32:59.338Z,4.00
2019-02-02T09:35:28.689Z,4.10
2019-02-02T09:37:57.993Z,4.10
2019-02-02T09:40:27.347Z,4.10
2019-02-02T09:42:56.645Z,4.10
2019-02-02T09:45:25.997Z,4.10
2019-02-02T09:47:55.304Z,4.10
2019-02-02T09:50:26.085Z,4.20
2019-02-02T09:52:55.388Z,4.20
2019-02-02T09:55:26.373Z,4.20
2019-02-02T09:57:58.609Z,4.30
2019-02-02T10:00:30.467Z,4.40
2019-02-02T10:02:59.769Z,4.50
2019-02-02T10:05:30.056Z,4.50
2019-02-02T10:07:59.511Z,4.60
2019-02-02T10:10:30.654Z,4.60
2019-02-02T10:13:00.165Z,4.60
2019-02-02T10:15:29.513Z,4.60
2019-02-02T10:17:58.876Z,4.60
2019-02-02T10:20:30.046Z,4.50
2019-02-02T10:23:00.293Z,4.50
2019-02-02T10:25:30.968Z,4.50
2019-02-02T10:28:01.232Z,4.50
2019-02-02T10:30:33.173Z,4.50
2019-02-02T10:33:02.476Z,4.50
2019-02-02T10:35:31.825Z,4.50
2019-02-02T10:38:01.134Z,4.50
2019-02-02T10:40:30.517Z,4.50
2019-02-02T10:42:59.792Z,4.50
2019-02-02T10:45:29.130Z,4.60
2019-02-02T10:47:58.425Z,4.50
2019-02-02T10:50:27.772Z,4.60
2019-02-02T10:52:57.149Z,4.60
2019-02-02T10:55:26.497Z,4.60
2019-02-02T10:57:55.823Z,4.70
2019-02-02T11:00:30.372Z,4.60
2019-02-02T11:02:59.682Z,4.60
2019-02-02T11:05:29.066Z,4.60
2019-02-02T11:07:58.462Z,4.60
2019-02-02T11:10:29.658Z,4.80
2019-02-02T11:12:59.018Z,4.90
2019-02-02T11:15:28.432Z,5.00
2019-02-02T11:17:58.054Z,5.00
2019-02-02T11:20:29.632Z,5.10
2019-02-02T11:22:58.931Z,5.20
2019-02-02T11:25:28.420Z,5.30
2019-02-02T11:27:57.763Z,5.40
2019-02-02T11:30:27.313Z,5.60
2019-02-02T11:32:56.702Z,5.70
2019-02-02T11:35:26.066Z,5.90
2019-02-02T11:37:55.397Z,6.20
2019-02-02T11:40:30.807Z,6.40
2019-02-02T11:43:00.125Z,6.60
2019-02-02T11:45:29.470Z,6.80
2019-02-02T11:47:58.818Z,6.90
2019-02-02T11:50:28.122Z,6.80
2019-02-02T11:52:57.484Z,6.80
2019-02-02T11:55:28.121Z,6.70
2019-02-02T11:57:57.531Z,6.60
2019-02-02T12:00:29.333Z,6.50
2019-02-02T12:02:58.685Z,6.50
2019-02-02T12:05:27.992Z,6.50
2019-02-02T12:07:57.341Z,6.40
2019-02-02T12:10:31.307Z,6.40
2019-02-02T12:13:00.658Z,6.30
2019-02-02T12:15:30.030Z,6.30
2019-02-02T12:17:59.393Z,6.30
2019-02-02T12:20:29.712Z,6.30
2019-02-02T12:22:59.063Z,6.30
2019-02-02T12:25:28.364Z,6.30
2019-02-02T12:27:57.838Z,6.30
2019-02-02T12:30:31.925Z,6.20
2019-02-02T12:33:03.403Z,6.20
2019-02-02T12:35:32.188Z,6.30
2019-02-02T12:38:01.530Z,6.30
2019-02-02T12:40:30.829Z,6.30
2019-02-02T12:43:00.174Z,6.30
2019-02-02T12:45:38.346Z,6.30
2019-02-02T12:48:07.698Z,6.40
2019-02-02T12:50:37.001Z,6.30
2019-02-02T12:53:06.696Z,6.30
2019-02-02T12:55:35.993Z,6.30
2019-02-02T12:58:06.483Z,6.30
2019-02-02T13:00:35.785Z,6.20
2019-02-02T13:03:05.676Z,6.20
2019-02-02T13:05:34.977Z,6.10
2019-02-02T13:08:05.296Z,6.00
2019-02-02T13:10:35.094Z,6.00
2019-02-02T13:13:04.440Z,6.00
2019-02-02T13:15:33.742Z,6.20
2019-02-02T13:18:03.144Z,6.30
2019-02-02T13:20:32.453Z,6.40
2019-02-02T13:23:01.798Z,6.50
2019-02-02T13:25:31.100Z,6.60
2019-02-02T13:28:00.449Z,6.70
2019-02-02T13:30:32.345Z,6.80
2019-02-02T13:33:01.693Z,6.90
2019-02-02T13:35:33.337Z,6.90
2019-02-02T13:38:02.681Z,6.90
2019-02-02T13:40:31.996Z,6.90
2019-02-02T13:43:01.348Z,6.80
2019-02-02T13:45:31.721Z,6.80
2019-02-02T13:48:01.056Z,6.70
2019-02-02T13:50:30.356Z,6.70
2019-02-02T13:52:59.701Z,6.60
2019-02-02T13:55:28.996Z,6.50
2019-02-02T13:57:58.338Z,6.40
2019-02-02T14:00:29.781Z,6.50
2019-02-02T14:03:03.673Z,6.40
2019-02-02T14:05:30.063Z,6.40
2019-02-02T14:08:00.238Z,6.50
2019-02-02T14:10:32.302Z,6.40
2019-02-02T14:13:01.674Z,6.40
2019-02-02T14:15:30.967Z,6.30
2019-02-02T14:18:00.309Z,6.30
2019-02-02T14:20:30.720Z,6.20
2019-02-02T14:23:00.064Z,6.10
2019-02-02T14:25:29.365Z,6.00
2019-02-02T14:27:58.721Z,6.00
2019-02-02T14:30:28.030Z,6.10
2019-02-02T14:32:57.527Z,6.20
2019-02-02T14:35:27.871Z,6.20
2019-02-02T14:37:57.234Z,6.20
2019-02-02T14:40:26.541Z,6.20
2019-02-02T14:42:55.844Z,6.20
2019-02-02T14:45:27.566Z,6.20
2019-02-02T14:47:56.790Z,6.40
2019-02-02T14:50:26.132Z,6.50
2019-02-02T14:52:55.441Z,6.50
2019-02-02T14:55:27.389Z,6.50
2019-02-02T14:57:56.719Z,6.50
2019-02-02T15:00:27.699Z,6.40
2019-02-02T15:02:57.257Z,6.30
2019-02-02T15:05:26.584Z,6.10
2019-02-02T15:07:55.888Z,6.10
2019-02-02T15:10:25.245Z,5.90
2019-02-02T15:12:54.673Z,5.80
2019-02-02T15:15:23.997Z,5.70
2019-02-02T15:17:53.311Z,5.60
2019-02-02T15:20:31.349Z,5.50
2019-02-02T15:23:00.640Z,5.50
2019-02-02T15:25:29.982Z,5.40
2019-02-02T15:27:59.282Z,5.40
2019-02-02T15:30:34.184Z,5.30
2019-02-02T15:33:03.742Z,5.30
2019-02-02T15:35:33.117Z,5.30
2019-02-02T15:38:02.395Z,5.20
2019-02-02T15:40:32.419Z,5.10
2019-02-02T15:43:01.724Z,5.10
2019-02-02T15:45:32.129Z,5.10
2019-02-02T15:48:01.441Z,5.10
2019-02-02T15:50:30.847Z,5.00
2019-02-02T15:53:00.145Z,5.00
2019-02-02T15:55:29.590Z,4.90
2019-02-02T15:57:58.898Z,4.90
2019-02-02T16:00:30.178Z,4.90
2019-02-02T16:02:59.486Z,4.80
2019-02-02T16:05:29.307Z,4.80
2019-02-02T16:08:00.542Z,4.80
2019-02-02T16:10:32.561Z,4.80
2019-02-02T16:13:01.874Z,4.70
2019-02-02T16:15:34.123Z,4.70
2019-02-02T16:18:02.184Z,4.60
2019-02-02T16:20:34.585Z,4.60
2019-02-02T16:23:04.149Z,4.70
2019-02-02T16:25:33.514Z,4.60
2019-02-02T16:28:02.830Z,4.60
2019-02-02T16:30:32.180Z,4.50
2019-02-02T16:33:01.491Z,4.50
2019-02-02T16:35:30.849Z,4.40
2019-02-02T16:38:00.160Z,4.50
2019-02-02T16:40:30.577Z,4.60
2019-02-02T16:42:59.889Z,4.70
2019-02-02T16:45:30.986Z,4.60
2019-02-02T16:48:00.288Z,4.60
2019-02-02T16:50:29.717Z,4.50
2019-02-02T16:52:59.240Z,4.50
2019-02-02T16:55:28.621Z,4.50
2019-02-02T16:57:57.873Z,4.50
2019-02-02T17:00:32.477Z,4.50
2019-02-02T17:03:01.789Z,4.50
2019-02-02T17:05:31.196Z,4.50
2019-02-02T17:08:00.586Z,4.40
2019-02-02T17:10:32.530Z,4.40
2019-02-02T17:13:01.841Z,4.30
2019-02-02T17:15:31.223Z,4.40
2019-02-02T17:18:00.514Z,4.40
2019-02-02T17:20:38.808Z,4.40
2019-02-02T17:23:08.116Z,4.40
2019-02-02T17:25:37.790Z,4.40
2019-02-02T17:28:07.365Z,4.40
2019-02-02T17:30:36.717Z,4.50
2019-02-02T17:33:08.405Z,4.60
2019-02-02T17:35:38.121Z,4.50
2019-02-02T17:38:07.825Z,4.40
2019-02-02T17:40:37.165Z,4.40
2019-02-02T17:43:06.516Z,4.30
2019-02-02T17:45:35.864Z,4.40
2019-02-02T17:48:05.764Z,4.50
2019-02-02T17:50:35.074Z,4.50
2019-02-02T17:53:04.480Z,4.50
2019-02-02T17:55:33.742Z,4.50
2019-02-02T17:58:03.097Z,4.50
2019-02-02T18:00:36.481Z,4.40
2019-02-02T18:03:05.934Z,4.40
2019-02-02T18:05:35.250Z,4.50
2019-02-02T18:08:05.147Z,4.40
2019-02-02T18:10:34.530Z,4.40
2019-02-02T18:13:03.889Z,4.50
2019-02-02T18:15:33.218Z,4.40
2019-02-02T18:18:02.713Z,4.40
2019-02-02T18:20:32.038Z,4.40
2019-02-02T18:23:01.394Z,4.40
2019-02-02T18:25:30.700Z,4.40
2019-02-02T18:28:00.061Z,4.40
2019-02-02T18:30:29.367Z,4.40
2019-02-02T18:32:58.721Z,4.50
2019-02-02T18:35:28.033Z,4.40
2019-02-02T18:37:57.461Z,4.40
2019-02-02T18:40:26.774Z,4.30
2019-02-02T18:42:56.125Z,4.30
2019-02-02T18:45:27.634Z,4.30
2019-02-02T18:47:56.992Z,4.30
2019-02-02T18:50:26.798Z,4.30
2019-02-02T18:52:58.854Z,4.40
2019-02-02T18:55:31.305Z,4.30
2019-02-02T18:58:00.666Z,4.40
2019-02-02T19:00:29.973Z,4.50
2019-02-02T19:02:59.329Z,4.60
2019-02-02T19:05:29.163Z,4.60
2019-02-02T19:07:59.756Z,4.70
2019-02-02T19:10:32.327Z,4.80
2019-02-02T19:13:01.677Z,4.90
2019-02-02T19:15:30.978Z,5.10
2019-02-02T19:18:03.324Z,5.20
2019-02-02T19:20:31.373Z,5.30
2019-02-02T19:23:00.792Z,5.30
2019-02-02T19:25:30.213Z,5.30
2019-02-02T19:27:59.565Z,5.30
2019-02-02T19:30:31.805Z,5.30
2019-02-02T19:33:01.113Z,5.30
2019-02-02T19:35:30.461Z,5.30
2019-02-02T19:37:59.765Z,5.20
2019-02-02T19:40:29.109Z,5.20
2019-02-02T19:42:58.540Z,5.10
2019-02-02T19:45:28.594Z,5.10
2019-02-02T19:47:57.909Z,5.10
2019-02-02T19:50:30.898Z,5.20
2019-02-02T19:53:00.270Z,5.20
2019-02-02T19:55:29.684Z,5.30
2019-02-02T19:57:58.989Z,5.40
2019-02-02T20:00:30.938Z,5.50
2019-02-02T20:03:00.546Z,5.50
2019-02-02T20:05:30.078Z,5.50
2019-02-02T20:07:59.387Z,5.50
2019-02-02T20:10:28.845Z,5.50
2019-02-02T20:12:58.170Z,5.50
2019-02-02T20:15:27.958Z,5.50
2019-02-02T20:18:08.943Z,5.60
2019-02-02T20:20:29.013Z,5.60
2019-02-02T20:22:58.392Z,5.60
2019-02-02T20:25:27.756Z,5.50
2019-02-02T20:27:57.066Z,5.50
2019-02-02T20:30:29.119Z,5.50
2019-02-02T20:32:58.416Z,5.50
2019-02-02T20:35:39.698Z,5.60
2019-02-02T20:37:59.949Z,5.50
2019-02-02T20:40:29.301Z,5.60
2019-02-02T20:42:58.613Z,5.60
2019-02-02T20:45:36.861Z,5.60
2019-02-02T20:48:07.291Z,5.60
2019-02-02T20:50:38.274Z,5.60
2019-02-02T20:53:09.222Z,5.60
2019-02-02T20:55:41.615Z,5.60
2019-02-02T20:58:10.919Z,5.60
2019-02-02T21:00:40.807Z,5.50
2019-02-02T21:03:13.505Z,5.50
2019-02-02T21:05:52.004Z,5.50
2019-02-02T21:08:15.048Z,5.40
2019-02-02T21:10:44.686Z,5.40
2019-02-02T21:13:14.121Z,5.30
2019-02-02T21:15:43.681Z,5.30
2019-02-02T21:18:13.949Z,5.30
2019-02-02T21:20:43.302Z,5.20
2019-02-02T21:23:12.684Z,5.10
2019-02-02T21:25:42.109Z,5.10
2019-02-02T21:28:11.633Z,5.10
2019-02-02T21:30:41.061Z,5.00
2019-02-02T21:33:10.378Z,5.00
2019-02-02T21:35:42.291Z,4.90
2019-02-02T21:38:11.765Z,4.90
2019-02-02T21:40:41.318Z,4.80
2019-02-02T21:43:10.630Z,4.80
2019-02-02T21:45:40.098Z,4.80
2019-02-02T21:48:09.629Z,4.70
2019-02-02T21:50:39.029Z,4.70
2019-02-02T21:53:08.343Z,4.70
2019-02-02T21:55:37.708Z,4.60
2019-02-02T21:58:07.262Z,4.50
2019-02-02T22:00:38.700Z,4.50
2019-02-02T22:03:08.144Z,4.40
2019-02-02T22:05:37.449Z,4.40
2019-02-02T22:08:07.170Z,4.30
2019-02-02T22:10:36.484Z,4.30
2019-02-02T22:13:05.981Z,4.20
2019-02-02T22:15:36.912Z,4.10
2019-02-02T22:18:06.277Z,4.00
2019-02-02T22:20:35.585Z,3.90
2019-02-02T22:23:04.941Z,3.80
2019-02-02T22:25:34.331Z,3.70
2019-02-02T22:28:03.688Z,3.50
2019-02-02T22:30:36.429Z,3.40
2019-02-02T22:33:06.594Z,3.30
2019-02-02T22:35:35.897Z,3.30
2019-02-02T22:38:05.258Z,3.40
2019-02-02T22:40:34.710Z,3.40
2019-02-02T22:43:04.096Z,3.40
2019-02-02T22:45:33.477Z,3.40
2019-02-02T22:48:02.835Z,3.40
2019-02-02T22:50:32.414Z,3.40
2019-02-02T22:53:01.842Z,3.40
2019-02-02T22:55:31.129Z,3.40
2019-02-02T22:58:00.510Z,3.40
2019-02-02T23:00:43.349Z,3.40
2019-02-02T23:03:19.368Z,3.40
2019-02-02T23:06:02.635Z,3.40
2019-02-02T23:08:47.313Z,3.40
2019-02-02T23:11:19.889Z,3.40
2019-02-02T23:14:07.340Z,3.40
2019-02-02T23:16:36.844Z,3.40
2019-02-02T23:19:06.565Z,3.40
2019-02-02T23:21:35.933Z,3.40
2019-02-02T23:24:05.281Z,3.40
2019-02-02T23:26:34.602Z,3.40
2019-02-02T23:29:03.946Z,3.40
2019-02-02T23:31:33.253Z,3.40
2019-02-02T23:34:02.623Z,3.40
2019-02-02T23:36:31.937Z,3.40
2019-02-02T23:39:01.317Z,3.40
2019-02-02T23:41:32.248Z,3.40
2019-02-02T23:44:01.615Z,3.40
2019-02-02T23:46:30.926Z,3.40
2019-02-02T23:49:00.346Z,3.40
2019-02-02T23:51:29.697Z,3.50
2019-02-02T23:53:59.001Z,3.40
2019-02-02T23:56:28.549Z,3.40
2019-02-02T23:58:57.863Z,3.40
